Time;durP1;ratioP1;P1;durP2;ratioP2;P2;SDS_P1;SDS_P2;PMS_P1;PMS_P2;Temp;Humidity;BMP_temperature;BMP_pressure;BME280_temperature;BME280_humidity;BME280_pressure;Samples;Min_cycle;Max_cycle;Signal;HPM_P1;HPM_P2
2020/12/30 00:00:10;;;;;;;12.82;6.60;;;4.30;99.90;;;;;;3620962;32;20655;-75
2020/12/30 00:02:37;;;;;;;16.80;6.38;;;4.40;99.90;;;;;;3624208;32;20272;-74
2020/12/30 00:05:06;;;;;;;12.02;5.78;;;4.30;99.90;;;;;;3622627;39;20235;-74
2020/12/30 00:07:33;;;;;;;9.75;5.65;;;4.30;99.90;;;;;;3620255;39;20248;-74
2020/12/30 00:10:00;;;;;;;9.25;5.20;;;4.30;99.90;;;;;;3619976;39;20280;-74
2020/12/30 00:12:28;;;;;;;8.15;5.30;;;4.30;99.90;;;;;;3621314;39;20272;-75
2020/12/30 00:14:55;;;;;;;8.85;5.45;;;4.30;99.90;;;;;;3621748;39;20252;-75
2020/12/30 00:17:21;;;;;;;10.93;5.70;;;4.20;99.90;;;;;;3624837;39;20232;-74
2020/12/30 00:19:48;;;;;;;8.63;5.78;;;4.20;99.90;;;;;;3621802;39;20259;-74
2020/12/30 00:22:16;;;;;;;10.02;5.63;;;4.10;99.90;;;;;;3621592;39;20244;-74
2020/12/30 00:24:42;;;;;;;9.10;5.07;;;4.00;99.90;;;;;;3621490;39;20259;-74
2020/12/30 00:27:09;;;;;;;13.05;6.65;;;3.90;99.90;;;;;;3621367;39;20349;-74
2020/12/30 00:29:36;;;;;;;9.73;6.25;;;3.80;99.90;;;;;;3635757;31;20286;-74
2020/12/30 00:32:02;;;;;;;10.40;5.88;;;3.70;99.90;;;;;;3625991;39;20323;-74
2020/12/30 00:34:29;;;;;;;9.65;6.35;;;3.70;99.90;;;;;;3621605;39;20336;-74
2020/12/30 00:36:56;;;;;;;11.23;5.43;;;3.60;99.90;;;;;;3621283;39;20281;-74
2020/12/30 00:39:23;;;;;;;6.97;5.90;;;3.50;99.90;;;;;;3622024;39;20371;-74
2020/12/30 00:41:53;;;;;;;6.97;5.57;;;3.50;99.90;;;;;;3625142;39;20256;-74
2020/12/30 00:44:20;;;;;;;7.93;5.50;;;3.40;99.90;;;;;;3623563;32;20274;-74
2020/12/30 00:46:51;;;;;;;9.13;6.25;;;3.40;99.90;;;;;;3620871;39;20808;-74
2020/12/30 00:49:17;;;;;;;8.80;5.72;;;3.30;99.90;;;;;;3623417;39;20638;-73
2020/12/30 00:51:49;;;;;;;9.88;6.38;;;3.20;99.90;;;;;;3623470;39;20359;-73
2020/12/30 00:54:15;;;;;;;8.73;6.03;;;3.20;99.90;;;;;;3623585;39;20819;-74
2020/12/30 00:56:43;;;;;;;15.82;6.22;;;3.10;99.90;;;;;;3622037;39;20228;-74
2020/12/30 00:59:09;;;;;;;8.85;6.00;;;3.10;99.90;;;;;;3620207;39;20352;-74
2020/12/30 01:01:36;;;;;;;8.38;5.88;;;3.10;99.90;;;;;;3625503;39;20344;-74
2020/12/30 01:04:03;;;;;;;5.40;4.90;;;3.00;99.90;;;;;;3627267;39;20763;-74
2020/12/30 01:06:29;;;;;;;8.75;5.63;;;3.00;99.90;;;;;;3623736;39;20292;-74
2020/12/30 01:08:56;;;;;;;10.40;6.10;;;3.00;99.90;;;;;;3621513;39;20283;-74
2020/12/30 01:11:26;;;;;;;7.70;6.05;;;2.90;99.90;;;;;;3622840;39;20255;-74
2020/12/30 01:13:54;;;;;;;9.57;6.18;;;2.70;99.90;;;;;;3621878;39;20352;-74
2020/12/30 01:16:20;;;;;;;8.52;6.20;;;2.60;99.90;;;;;;3622329;39;20698;-74
2020/12/30 01:18:47;;;;;;;10.38;6.22;;;2.70;99.90;;;;;;3624741;39;20274;-74
2020/12/30 01:21:13;;;;;;;11.13;6.82;;;2.70;99.90;;;;;;3620794;39;20270;-74
2020/12/30 01:23:40;;;;;;;12.63;6.10;;;2.60;99.90;;;;;;3622922;39;20847;-75
2020/12/30 01:26:06;;;;;;;11.80;6.63;;;2.60;99.90;;;;;;3621795;39;20313;-75
2020/12/30 01:28:33;;;;;;;10.70;7.00;;;2.70;99.90;;;;;;3623325;39;20371;-75
2020/12/30 01:31:00;;;;;;;11.93;7.15;;;2.60;99.90;;;;;;3623910;39;20343;-75
2020/12/30 01:33:27;;;;;;;9.60;7.07;;;2.60;99.90;;;;;;3621532;39;20273;-75
2020/12/30 01:35:53;;;;;;;10.05;6.55;;;2.60;99.90;;;;;;3620620;39;20360;-75
2020/12/30 01:38:20;;;;;;;8.27;6.45;;;2.70;99.90;;;;;;3621091;39;20262;-75
2020/12/30 01:40:46;;;;;;;12.30;6.85;;;2.70;99.90;;;;;;3621064;39;20645;-75
2020/12/30 01:43:14;;;;;;;8.10;5.93;;;2.70;99.90;;;;;;3621292;39;20248;-75
2020/12/30 01:45:41;;;;;;;9.27;6.05;;;2.70;99.90;;;;;;3644999;32;20633;-75
2020/12/30 01:48:15;;;;;;;9.57;6.45;;;2.70;99.90;;;;;;3650165;32;20822;-74
2020/12/30 01:50:42;;;;;;;7.88;6.30;;;2.70;99.90;;;;;;3620141;39;20358;-74
2020/12/30 01:53:09;;;;;;;10.15;6.60;;;2.70;99.90;;;;;;3620257;39;20248;-74
2020/12/30 01:55:39;;;;;;;12.63;6.65;;;2.80;99.90;;;;;;3620734;39;20282;-74
2020/12/30 01:58:06;;;;;;;9.95;6.70;;;2.80;99.90;;;;;;3625769;39;20379;-75
2020/12/30 02:00:34;;;;;;;14.07;7.35;;;2.90;99.90;;;;;;3624738;39;20257;-74
2020/12/30 02:03:03;;;;;;;11.05;6.15;;;2.80;99.90;;;;;;3620746;39;20282;-74
2020/12/30 02:05:32;;;;;;;12.35;6.30;;;2.80;99.90;;;;;;3623987;39;20352;-75
2020/12/30 02:07:59;;;;;;;11.88;7.18;;;2.80;99.90;;;;;;3620888;39;20283;-74
2020/12/30 02:10:27;;;;;;;13.13;7.53;;;2.80;99.90;;;;;;3620823;39;20331;-74
2020/12/30 02:12:54;;;;;;;8.48;6.45;;;2.90;99.90;;;;;;3628607;32;20358;-75
2020/12/30 02:15:25;;;;;;;11.43;6.80;;;2.90;99.90;;;;;;3624044;39;20359;-75
2020/12/30 02:17:51;;;;;;;11.68;6.43;;;2.90;99.90;;;;;;3621931;39;20338;-74
2020/12/30 02:20:18;;;;;;;9.68;6.20;;;3.00;99.90;;;;;;3619733;39;20402;-74
2020/12/30 02:22:51;;;;;;;11.18;6.15;;;2.90;99.90;;;;;;3621715;39;20379;-74
2020/12/30 02:25:18;;;;;;;7.00;5.70;;;2.90;99.90;;;;;;3620827;39;20252;-74
2020/12/30 02:27:44;;;;;;;13.07;6.25;;;2.90;99.90;;;;;;3625240;39;20276;-74
2020/12/30 02:30:13;;;;;;;6.85;5.88;;;3.00;99.90;;;;;;3620146;39;20260;-74
2020/12/30 02:32:39;;;;;;;11.85;6.28;;;3.00;99.90;;;;;;3623565;39;20282;-74
2020/12/30 02:35:06;;;;;;;10.43;6.75;;;2.90;99.90;;;;;;3622399;39;20256;-74
2020/12/30 02:37:32;;;;;;;9.90;6.50;;;2.90;99.90;;;;;;3620657;39;20244;-74
2020/12/30 02:39:59;;;;;;;11.27;6.47;;;3.00;99.90;;;;;;3620914;39;20252;-74
2020/12/30 02:42:27;;;;;;;17.35;6.03;;;3.00;99.90;;;;;;3623852;39;20255;-74
2020/12/30 02:45:01;;;;;;;10.07;6.63;;;3.00;99.90;;;;;;3622928;39;20288;-74
2020/12/30 02:47:28;;;;;;;8.93;6.50;;;3.00;99.90;;;;;;3620565;39;20267;-74
2020/12/30 02:49:54;;;;;;;10.73;6.15;;;3.10;99.90;;;;;;3620120;39;20847;-74
2020/12/30 02:52:21;;;;;;;9.75;7.38;;;3.10;99.90;;;;;;3621019;39;20251;-74
2020/12/30 02:54:47;;;;;;;8.93;6.03;;;3.10;99.90;;;;;;3620874;39;20271;-74
2020/12/30 02:57:14;;;;;;;12.25;7.03;;;3.20;99.90;;;;;;3623137;39;20348;-74
2020/12/30 02:59:41;;;;;;;7.70;6.07;;;3.20;99.90;;;;;;3620520;39;20248;-75
2020/12/30 03:02:08;;;;;;;14.90;7.15;;;3.20;99.90;;;;;;3620981;39;20343;-74
2020/12/30 03:04:34;;;;;;;6.85;6.07;;;3.30;99.90;;;;;;3621426;39;20289;-75
2020/12/30 03:07:00;;;;;;;7.53;6.78;;;3.40;99.90;;;;;;3623680;39;20251;-74
2020/12/30 03:09:27;;;;;;;13.38;7.68;;;3.40;99.90;;;;;;3619880;39;20260;-74
2020/12/30 03:11:53;;;;;;;9.48;6.88;;;3.50;99.90;;;;;;3620072;39;20260;-74
2020/12/30 03:14:20;;;;;;;10.07;6.47;;;3.50;99.90;;;;;;3654228;31;20291;-74
2020/12/30 03:16:48;;;;;;;13.38;6.35;;;3.60;99.90;;;;;;3620992;39;20768;-74
2020/12/30 03:19:14;;;;;;;17.92;9.30;;;3.60;99.90;;;;;;3623319;39;20271;-74
2020/12/30 03:21:41;;;;;;;13.30;9.10;;;3.60;99.90;;;;;;3619917;39;20344;-75
2020/12/30 03:24:07;;;;;;;17.48;8.52;;;3.60;99.90;;;;;;3620344;39;20263;-75
2020/12/30 03:26:35;;;;;;;11.88;8.23;;;3.60;99.90;;;;;;3620183;39;20275;-74
2020/12/30 03:29:02;;;;;;;14.30;8.02;;;3.60;99.90;;;;;;3621088;39;20259;-75
2020/12/30 03:31:29;;;;;;;16.08;8.85;;;3.70;99.90;;;;;;3619953;39;20267;-75
2020/12/30 03:33:57;;;;;;;18.42;8.68;;;3.70;99.90;;;;;;3620118;39;20356;-75
2020/12/30 03:36:24;;;;;;;18.65;8.65;;;3.70;99.90;;;;;;3622505;39;20276;-75
2020/12/30 03:38:50;;;;;;;17.08;9.60;;;3.70;99.90;;;;;;3620081;39;20382;-75
2020/12/30 03:41:17;;;;;;;14.60;9.35;;;3.70;99.90;;;;;;3622459;39;20814;-75
2020/12/30 03:43:43;;;;;;;16.58;9.85;;;3.70;99.90;;;;;;3624132;39;20317;-75
2020/12/30 03:46:10;;;;;;;19.63;10.05;;;3.70;99.90;;;;;;3622195;39;20256;-75
2020/12/30 03:48:36;;;;;;;17.83;10.57;;;3.70;99.90;;;;;;3620977;39;20341;-75
2020/12/30 03:51:04;;;;;;;17.55;9.48;;;3.70;99.90;;;;;;3623774;39;20294;-75
2020/12/30 03:53:30;;;;;;;18.95;8.75;;;3.70;99.90;;;;;;3624016;39;20266;-74
2020/12/30 03:55:57;;;;;;;12.57;8.23;;;3.70;99.90;;;;;;3623031;39;20655;-74
2020/12/30 03:58:23;;;;;;;11.70;8.35;;;3.80;99.90;;;;;;3621789;39;20626;-74
2020/12/30 04:00:50;;;;;;;14.02;8.73;;;3.90;99.90;;;;;;3621731;39;20277;-74
2020/12/30 04:03:17;;;;;;;20.02;9.95;;;3.90;99.90;;;;;;3621652;39;20284;-74
2020/12/30 04:05:43;;;;;;;21.52;10.90;;;3.90;99.90;;;;;;3625330;39;20252;-74
2020/12/30 04:08:11;;;;;;;20.98;10.02;;;3.90;99.90;;;;;;3622201;39;20344;-74
2020/12/30 04:10:37;;;;;;;26.27;10.30;;;3.90;99.90;;;;;;3622478;39;20340;-74
2020/12/30 04:13:04;;;;;;;15.15;9.60;;;3.80;99.90;;;;;;3625819;39;20252;-74
2020/12/30 04:15:30;;;;;;;17.90;9.27;;;3.90;99.90;;;;;;3620542;39;20352;-74
2020/12/30 04:17:56;;;;;;;15.68;8.95;;;3.90;99.90;;;;;;3621651;39;20287;-74
2020/12/30 04:20:23;;;;;;;10.30;7.18;;;3.90;99.90;;;;;;3623940;39;20282;-74
2020/12/30 04:22:49;;;;;;;16.15;9.88;;;3.90;99.90;;;;;;3622048;39;20266;-74
2020/12/30 04:25:17;;;;;;;13.77;8.43;;;3.90;99.90;;;;;;3623553;39;20279;-74
2020/12/30 04:27:43;;;;;;;13.82;7.45;;;3.80;99.90;;;;;;3621584;39;20340;-76
2020/12/30 04:30:10;;;;;;;12.77;7.90;;;3.80;99.90;;;;;;3622280;39;20247;-76
2020/12/30 04:32:36;;;;;;;11.48;7.38;;;3.80;99.90;;;;;;3621401;39;20248;-76
2020/12/30 04:35:04;;;;;;;13.00;8.82;;;3.70;99.90;;;;;;3621827;39;20243;-76
2020/12/30 04:37:30;;;;;;;16.05;8.50;;;3.60;99.90;;;;;;3624400;39;20267;-76
2020/12/30 04:39:57;;;;;;;13.05;8.00;;;3.60;99.90;;;;;;3625779;39;20251;-76
2020/12/30 04:42:33;;;;;;;12.18;8.15;;;3.60;99.90;;;;;;3627278;39;20293;-76
2020/12/30 04:45:04;;;;;;;15.52;10.23;;;3.70;99.90;;;;;;3623093;39;20248;-76
2020/12/30 04:47:32;;;;;;;21.60;9.88;;;3.80;99.90;;;;;;3621965;39;20260;-76
2020/12/30 04:49:59;;;;;;;18.67;11.05;;;3.80;99.90;;;;;;3625925;39;20347;-76
2020/12/30 04:52:27;;;;;;;21.48;11.75;;;3.80;99.90;;;;;;3623709;39;20283;-76
2020/12/30 04:54:54;;;;;;;19.45;10.88;;;3.80;99.90;;;;;;3625783;39;20275;-76
2020/12/30 04:57:35;;;;;;;13.07;9.65;;;3.80;99.90;;;;;;3621942;39;20260;-76
2020/12/30 05:00:05;;;;;;;23.17;9.82;;;3.80;99.90;;;;;;3621130;39;20328;-76
2020/12/30 05:02:41;;;;;;;19.75;11.25;;;3.90;99.90;;;;;;3623104;39;20251;-75
2020/12/30 05:05:07;;;;;;;18.90;11.05;;;3.90;99.90;;;;;;3625208;39;20252;-76
2020/12/30 05:07:34;;;;;;;17.67;10.15;;;3.90;99.90;;;;;;3626667;39;20259;-75
2020/12/30 05:10:03;;;;;;;22.10;11.30;;;3.90;99.90;;;;;;3621948;39;20243;-75
2020/12/30 05:12:30;;;;;;;21.60;11.30;;;3.90;99.90;;;;;;3622909;39;20259;-75
2020/12/30 05:14:57;;;;;;;18.88;10.93;;;3.90;99.90;;;;;;3621567;39;20270;-75
2020/12/30 05:17:23;;;;;;;19.80;12.45;;;3.80;99.90;;;;;;3626794;39;20260;-75
2020/12/30 05:19:50;;;;;;;21.48;11.93;;;3.90;99.90;;;;;;3620884;39;20314;-75
2020/12/30 05:22:17;;;;;;;19.92;10.65;;;3.90;99.90;;;;;;3629645;32;20396;-76
2020/12/30 05:24:45;;;;;;;17.17;10.23;;;4.00;99.90;;;;;;3624017;39;20283;-75
2020/12/30 05:27:12;;;;;;;19.10;11.13;;;4.10;99.90;;;;;;3625041;39;20275;-75
2020/12/30 05:29:45;;;;;;;18.92;10.85;;;4.10;99.90;;;;;;3621226;39;20740;-75
2020/12/30 05:32:12;;;;;;;20.13;11.15;;;4.10;99.90;;;;;;3623713;39;20252;-74
2020/12/30 05:34:38;;;;;;;21.38;11.40;;;4.30;99.90;;;;;;3621406;39;20270;-75
2020/12/30 05:37:05;;;;;;;23.05;12.77;;;4.30;99.90;;;;;;3620969;39;20751;-74
2020/12/30 05:39:33;;;;;;;18.15;10.45;;;4.40;99.90;;;;;;3621618;39;20259;-74
2020/12/30 05:42:10;;;;;;;19.52;11.88;;;4.40;99.90;;;;;;3620805;39;20280;-75
2020/12/30 05:44:36;;;;;;;24.88;11.00;;;4.40;99.90;;;;;;3637496;32;20313;-76
2020/12/30 05:47:14;;;;;;;16.88;10.95;;;4.40;99.90;;;;;;3623630;39;20263;-74
2020/12/30 05:49:41;;;;;;;20.67;12.43;;;4.50;99.90;;;;;;3621136;39;20705;-75
2020/12/30 05:52:12;;;;;;;19.77;11.70;;;4.50;99.90;;;;;;3621502;39;20271;-74
2020/12/30 05:54:38;;;;;;;17.98;11.77;;;4.50;99.90;;;;;;3624758;39;20251;-74
2020/12/30 05:57:20;;;;;;;22.65;11.82;;;4.50;99.90;;;;;;3621074;39;20395;-74
2020/12/30 05:59:47;;;;;;;19.00;12.02;;;4.40;99.90;;;;;;3620022;39;20258;-75
2020/12/30 06:02:16;;;;;;;20.30;11.18;;;4.50;99.90;;;;;;3620745;39;20253;-74
2020/12/30 06:04:42;;;;;;;22.15;13.25;;;4.50;99.90;;;;;;3624420;39;20278;-74
2020/12/30 06:07:13;;;;;;;21.92;12.07;;;4.50;99.90;;;;;;3620632;39;20328;-74
2020/12/30 06:09:40;;;;;;;18.58;11.02;;;4.60;99.90;;;;;;3620410;39;20278;-74
2020/12/30 06:12:07;;;;;;;19.58;11.18;;;4.50;99.90;;;;;;3620683;39;21217;-75
2020/12/30 06:14:34;;;;;;;20.90;12.35;;;4.50;99.90;;;;;;3620620;39;20831;-75
2020/12/30 06:17:03;;;;;;;19.95;12.23;;;4.50;99.90;;;;;;3620915;39;20356;-74
2020/12/30 06:19:32;;;;;;;23.85;13.63;;;4.50;99.90;;;;;;3620238;39;20604;-74
2020/12/30 06:21:58;;;;;;;19.77;10.98;;;4.50;99.90;;;;;;3622120;39;20270;-74
2020/12/30 06:24:28;;;;;;;20.60;12.27;;;4.50;99.90;;;;;;3622994;39;20297;-74
2020/12/30 06:27:03;;;;;;;23.98;12.27;;;4.50;99.90;;;;;;3622539;39;20893;-74
2020/12/30 06:29:30;;;;;;;19.80;11.82;;;4.40;99.90;;;;;;3622168;39;20267;-74
2020/12/30 06:31:57;;;;;;;18.80;11.20;;;4.30;99.90;;;;;;3620674;39;20282;-74
2020/12/30 06:34:23;;;;;;;20.92;11.90;;;4.30;99.90;;;;;;3619541;39;20279;-74
2020/12/30 06:37:03;;;;;;;21.98;11.98;;;4.40;99.90;;;;;;3620427;39;20324;-74
2020/12/30 06:39:30;;;;;;;22.50;11.20;;;4.40;99.90;;;;;;3620474;39;20360;-74
2020/12/30 06:42:01;;;;;;;22.50;12.68;;;4.40;99.90;;;;;;3622675;39;20240;-74
2020/12/30 06:44:41;;;;;;;23.75;12.55;;;4.40;99.90;;;;;;3622741;39;20259;-74
2020/12/30 06:47:09;;;;;;;21.23;12.68;;;4.40;99.90;;;;;;3620730;39;20240;-74
2020/12/30 06:49:36;;;;;;;20.80;12.57;;;4.40;99.90;;;;;;3622167;39;20298;-74
2020/12/30 06:52:03;;;;;;;24.02;13.82;;;4.50;99.90;;;;;;3623090;39;20359;-74
2020/12/30 06:54:46;;;;;;;24.00;12.77;;;4.50;99.90;;;;;;3620655;39;20270;-74
2020/12/30 06:57:37;;;;;;;24.10;11.73;;;4.40;99.90;;;;;;3620853;39;20260;-74
2020/12/30 07:00:38;;;;;;;23.38;12.27;;;4.50;99.90;;;;;;3619884;39;20769;-74
2020/12/30 07:03:16;;;;;;;20.73;11.63;;;4.50;99.90;;;;;;3596657;40;20303;-74
2020/12/30 07:05:44;;;;;;;19.20;12.07;;;4.50;99.90;;;;;;3596116;40;20272;-74
2020/12/30 07:08:12;;;;;;;25.00;12.75;;;4.50;99.90;;;;;;3596303;40;20256;-74
2020/12/30 07:10:42;;;;;;;27.48;13.45;;;4.60;99.90;;;;;;3595629;40;20277;-74
2020/12/30 07:13:09;;;;;;;18.30;11.95;;;4.50;99.90;;;;;;3596200;40;20370;-74
2020/12/30 07:15:35;;;;;;;24.52;13.20;;;4.50;99.90;;;;;;3595985;40;20357;-74
2020/12/30 07:18:08;;;;;;;24.52;12.52;;;4.40;99.90;;;;;;3606235;32;20256;-74
2020/12/30 07:20:41;;;;;;;29.45;13.48;;;4.40;99.90;;;;;;3596071;40;20356;-74
2020/12/30 07:23:11;;;;;;;23.42;12.25;;;4.40;99.90;;;;;;3595997;40;20252;-74
2020/12/30 07:25:38;;;;;;;22.08;13.90;;;4.30;99.90;;;;;;3598721;40;20283;-74
2020/12/30 07:28:05;;;;;;;23.55;12.07;;;4.30;99.90;;;;;;3598495;40;20265;-74
2020/12/30 07:30:33;;;;;;;21.52;11.93;;;4.40;99.90;;;;;;3598372;40;20260;-75
2020/12/30 07:33:00;;;;;;;22.73;12.88;;;4.40;99.90;;;;;;3600349;39;20248;-74
2020/12/30 07:35:27;;;;;;;26.40;14.27;;;4.40;99.90;;;;;;3624127;39;20134;-74
2020/12/30 07:37:53;;;;;;;25.00;13.48;;;4.40;99.90;;;;;;3622024;39;20255;-74
2020/12/30 07:40:21;;;;;;;26.85;14.07;;;4.30;99.90;;;;;;3624141;39;20364;-74
2020/12/30 07:42:57;;;;;;;22.20;13.02;;;4.30;99.90;;;;;;3622150;39;20654;-75
2020/12/30 07:45:23;;;;;;;23.13;13.70;;;4.30;99.90;;;;;;3622476;39;20248;-75
2020/12/30 07:47:50;;;;;;;24.40;13.35;;;4.40;99.90;;;;;;3621936;39;20715;-75
2020/12/30 07:50:16;;;;;;;28.20;13.93;;;4.40;99.90;;;;;;3624610;39;20259;-75
2020/12/30 07:52:43;;;;;;;26.40;13.98;;;4.40;99.90;;;;;;3627508;39;20324;-75
2020/12/30 07:55:09;;;;;;;28.77;13.40;;;4.40;99.90;;;;;;3623830;39;20343;-75
2020/12/30 07:57:37;;;;;;;24.85;14.63;;;4.40;99.90;;;;;;3621915;39;20252;-75
2020/12/30 08:00:04;;;;;;;24.02;13.38;;;4.50;99.90;;;;;;3622888;39;20252;-75
2020/12/30 08:02:30;;;;;;;23.40;12.70;;;4.50;99.90;;;;;;3625748;39;20277;-75
2020/12/30 08:05:01;;;;;;;22.23;13.45;;;4.50;99.90;;;;;;3625575;39;20240;-75
2020/12/30 08:07:29;;;;;;;25.00;14.27;;;4.50;99.90;;;;;;3621935;39;20344;-75
2020/12/30 08:09:56;;;;;;;21.92;12.70;;;4.50;99.90;;;;;;3622156;39;20375;-75
2020/12/30 08:12:23;;;;;;;23.13;12.75;;;4.50;99.90;;;;;;3622249;39;20259;-75
2020/12/30 08:14:52;;;;;;;24.15;12.48;;;4.50;99.90;;;;;;3623320;39;20248;-76
2020/12/30 08:17:21;;;;;;;23.65;12.60;;;4.50;99.90;;;;;;3630337;39;20286;-75
2020/12/30 08:19:49;;;;;;;26.73;13.57;;;4.50;99.90;;;;;;3622050;39;20854;-76
2020/12/30 08:22:22;;;;;;;27.38;12.88;;;4.50;99.90;;;;;;3622301;39;20259;-76
2020/12/30 08:24:50;;;;;;;26.80;12.52;;;4.50;99.90;;;;;;3622648;39;20273;-76
2020/12/30 08:27:19;;;;;;;29.02;14.30;;;4.50;99.90;;;;;;3625035;31;20352;-76
2020/12/30 08:29:47;;;;;;;28.58;13.35;;;4.50;99.90;;;;;;3622268;39;20256;-76
2020/12/30 08:32:17;;;;;;;25.33;13.13;;;4.50;99.90;;;;;;3622223;39;20264;-76
2020/12/30 08:34:48;;;;;;;24.63;12.73;;;4.50;99.90;;;;;;3622231;39;20256;-76
2020/12/30 08:37:22;;;;;;;21.90;13.45;;;4.50;99.90;;;;;;3637694;32;20462;-76
2020/12/30 08:39:56;;;;;;;28.42;12.88;;;4.50;99.90;;;;;;3655437;31;20347;-76
2020/12/30 08:42:45;;;;;;;23.08;12.98;;;4.50;99.90;;;;;;3621745;39;20990;-76
2020/12/30 08:45:14;;;;;;;24.08;14.02;;;4.50;99.90;;;;;;3622138;39;20612;-76
2020/12/30 08:47:43;;;;;;;23.77;14.10;;;4.50;99.90;;;;;;3621876;39;20240;-76
2020/12/30 08:50:10;;;;;;;25.58;14.00;;;4.50;99.90;;;;;;3626401;39;20259;-76
2020/12/30 08:52:41;;;;;;;24.00;13.60;;;4.60;99.90;;;;;;3621785;39;20280;-76
2020/12/30 08:55:08;;;;;;;29.38;14.57;;;4.70;99.90;;;;;;3623296;39;20303;-76
2020/12/30 08:57:37;;;;;;;25.95;13.45;;;4.80;99.90;;;;;;3621522;39;20279;-76
2020/12/30 09:00:17;;;;;;;23.25;13.27;;;4.80;99.90;;;;;;3621408;39;20272;-75
2020/12/30 09:02:46;;;;;;;24.70;14.25;;;4.80;99.90;;;;;;3628154;39;20295;-76
2020/12/30 09:05:12;;;;;;;25.25;14.38;;;4.80;99.90;;;;;;3621203;39;20268;-76
2020/12/30 09:07:39;;;;;;;27.65;14.50;;;4.70;99.90;;;;;;3653623;31;20268;-75
2020/12/30 09:10:10;;;;;;;25.98;14.13;;;4.70;99.90;;;;;;3624634;39;20256;-76
2020/12/30 09:12:37;;;;;;;33.35;15.82;;;4.70;99.90;;;;;;3630180;32;20236;-75
2020/12/30 09:15:05;;;;;;;26.17;13.90;;;4.70;99.90;;;;;;3622027;39;20291;-76
2020/12/30 09:17:32;;;;;;;23.35;12.95;;;4.70;99.90;;;;;;3624185;39;20240;-76
2020/12/30 09:20:13;;;;;;;23.88;13.27;;;4.80;99.90;;;;;;3621386;39;20263;-76
2020/12/30 09:22:41;;;;;;;26.67;14.15;;;4.80;99.90;;;;;;3621742;39;20271;-76
2020/12/30 09:25:08;;;;;;;25.65;13.00;;;4.80;99.90;;;;;;3622068;39;20259;-76
2020/12/30 09:27:36;;;;;;;26.00;13.90;;;4.70;99.90;;;;;;3625029;39;20278;-76
2020/12/30 09:30:10;;;;;;;28.00;15.57;;;4.80;99.90;;;;;;3621199;39;20281;-76
2020/12/30 09:32:37;;;;;;;30.40;15.55;;;4.70;99.90;;;;;;3624830;39;20252;-76
2020/12/30 09:35:05;;;;;;;26.33;15.07;;;4.80;99.90;;;;;;3620802;39;20255;-76
2020/12/30 09:37:33;;;;;;;28.05;14.27;;;4.80;99.90;;;;;;3623868;39;20271;-76
2020/12/30 09:40:07;;;;;;;28.08;14.25;;;4.80;99.90;;;;;;3622225;39;21578;-76
2020/12/30 09:42:34;;;;;;;25.70;14.15;;;4.80;99.90;;;;;;3621211;39;20350;-76
2020/12/30 09:45:01;;;;;;;29.50;15.57;;;4.90;99.90;;;;;;3623377;39;20840;-75
2020/12/30 09:47:28;;;;;;;24.83;13.25;;;4.90;99.90;;;;;;3642595;32;20770;-76
2020/12/30 09:49:54;;;;;;;31.40;14.73;;;4.90;99.90;;;;;;3621261;39;20292;-75
2020/12/30 09:52:21;;;;;;;30.50;14.68;;;4.80;99.90;;;;;;3621046;39;20363;-75
2020/12/30 09:54:48;;;;;;;33.80;14.15;;;4.90;99.90;;;;;;3621586;39;20244;-76
2020/12/30 09:57:15;;;;;;;31.83;16.60;;;5.00;99.90;;;;;;3621219;39;20288;-76
2020/12/30 09:59:43;;;;;;;30.52;16.38;;;5.00;99.90;;;;;;3624307;39;20248;-76
2020/12/30 10:02:10;;;;;;;29.70;15.25;;;5.00;99.90;;;;;;3621233;39;20256;-75
2020/12/30 10:04:39;;;;;;;28.73;15.60;;;5.00;99.90;;;;;;3632732;31;20240;-76
2020/12/30 10:07:05;;;;;;;27.20;15.20;;;5.10;99.90;;;;;;3623380;39;20864;-76
2020/12/30 10:09:32;;;;;;;31.08;15.60;;;5.10;99.90;;;;;;3627966;39;20247;-76
2020/12/30 10:11:59;;;;;;;27.55;14.98;;;5.10;99.90;;;;;;3629854;39;20247;-75
2020/12/30 10:14:26;;;;;;;33.28;16.45;;;5.10;99.90;;;;;;3626213;39;20271;-76
2020/12/30 10:16:52;;;;;;;29.77;17.83;;;5.10;99.90;;;;;;3634413;39;20347;-76
2020/12/30 10:19:19;;;;;;;32.03;15.90;;;5.20;99.90;;;;;;3629812;39;20280;-76
2020/12/30 10:21:45;;;;;;;29.05;16.48;;;5.20;99.90;;;;;;3632474;39;20279;-76
2020/12/30 10:24:12;;;;;;;29.77;15.77;;;5.20;99.90;;;;;;3624239;39;20248;-76
2020/12/30 10:26:38;;;;;;;34.75;16.38;;;5.10;99.90;;;;;;3622731;39;20248;-75
2020/12/30 10:29:05;;;;;;;27.73;14.80;;;5.10;99.90;;;;;;3623471;39;20272;-76
2020/12/30 10:31:32;;;;;;;28.92;16.00;;;5.10;99.90;;;;;;3620774;39;20255;-75
2020/12/30 10:33:58;;;;;;;30.50;15.88;;;5.10;99.90;;;;;;3621279;39;20339;-75
2020/12/30 10:36:29;;;;;;;26.80;15.07;;;5.20;99.90;;;;;;3622869;39;20284;-75
2020/12/30 10:38:56;;;;;;;29.30;15.40;;;5.30;99.90;;;;;;3622536;31;20301;-75
2020/12/30 10:41:23;;;;;;;33.75;16.25;;;5.40;99.90;;;;;;3621077;39;20336;-75
2020/12/30 10:43:49;;;;;;;28.98;14.73;;;5.40;99.90;;;;;;3622743;39;20284;-76
2020/12/30 10:46:18;;;;;;;24.73;13.48;;;5.50;99.90;;;;;;3620426;39;20275;-75
2020/12/30 10:48:47;;;;;;;30.33;15.18;;;5.50;99.90;;;;;;3621380;39;20267;-75
2020/12/30 10:51:14;;;;;;;27.33;14.05;;;5.60;99.90;;;;;;3620961;39;20264;-75
2020/12/30 10:53:41;;;;;;;29.33;14.82;;;5.70;99.90;;;;;;3622730;39;20256;-75
2020/12/30 10:56:09;;;;;;;30.17;13.48;;;5.70;99.90;;;;;;3621499;31;20320;-75
2020/12/30 10:58:36;;;;;;;26.58;15.80;;;5.70;99.90;;;;;;3623543;39;20283;-75
2020/12/30 11:01:07;;;;;;;30.60;16.27;;;5.80;99.90;;;;;;3621199;39;20251;-75
2020/12/30 11:17:48;;;;;;;34.83;15.50;;;5.80;99.90;;;;;;3646943;31;20232;-75
2020/12/30 11:20:15;;;;;;;29.20;14.88;;;5.70;99.90;;;;;;3629256;39;20287;-75
2020/12/30 11:22:41;;;;;;;26.08;13.98;;;5.70;99.90;;;;;;3629497;39;20291;-76
2020/12/30 11:25:09;;;;;;;28.60;14.13;;;5.70;99.90;;;;;;3629643;39;20356;-75
2020/12/30 11:27:35;;;;;;;27.38;14.52;;;5.60;99.90;;;;;;3628886;39;20274;-75
2020/12/30 11:30:02;;;;;;;24.30;14.30;;;5.70;99.90;;;;;;3632511;31;20297;-75
2020/12/30 11:32:28;;;;;;;25.10;14.02;;;5.70;99.90;;;;;;3635145;39;20252;-75
2020/12/30 11:34:56;;;;;;;25.40;14.57;;;5.60;99.90;;;;;;3632454;39;20267;-75
2020/12/30 11:37:22;;;;;;;25.08;13.20;;;5.60;99.90;;;;;;3633976;39;20301;-75
2020/12/30 11:39:49;;;;;;;24.85;13.20;;;5.50;99.90;;;;;;3632319;39;20243;-75
2020/12/30 11:42:15;;;;;;;29.55;15.20;;;5.60;99.90;;;;;;3628530;39;20355;-75
2020/12/30 11:44:42;;;;;;;33.28;15.63;;;5.60;99.90;;;;;;3633131;39;20390;-75
2020/12/30 11:47:08;;;;;;;37.00;16.73;;;5.50;99.90;;;;;;3629637;39;20251;-75
2020/12/30 11:49:35;;;;;;;27.15;14.75;;;5.50;99.90;;;;;;3630187;39;20281;-75
2020/12/30 11:52:02;;;;;;;32.28;14.73;;;5.50;99.90;;;;;;3629424;39;20291;-80
2020/12/30 11:54:29;;;;;;;26.27;13.57;;;5.50;99.90;;;;;;3628958;39;20633;-76
2020/12/30 11:56:55;;;;;;;33.22;13.98;;;5.60;99.90;;;;;;3635303;31;20248;-76
2020/12/30 11:59:22;;;;;;;26.08;13.45;;;5.70;99.90;;;;;;3629979;39;20271;-75
2020/12/30 12:01:48;;;;;;;27.65;14.57;;;5.70;99.90;;;;;;3629729;39;20360;-75
2020/12/30 12:04:15;;;;;;;27.58;14.23;;;5.70;99.90;;;;;;3629364;39;20336;-75
2020/12/30 12:06:41;;;;;;;31.05;13.90;;;5.80;99.90;;;;;;3632986;39;20248;-75
2020/12/30 12:09:09;;;;;;;29.80;13.50;;;5.80;99.90;;;;;;3632351;39;20247;-76
2020/12/30 12:11:45;;;;;;;24.05;14.15;;;5.90;99.90;;;;;;3631969;39;20335;-77
2020/12/30 12:14:17;;;;;;;21.10;11.73;;;6.00;99.90;;;;;;3632154;39;20273;-75
2020/12/30 12:16:50;;;;;;;27.48;13.85;;;6.00;99.90;;;;;;3622657;39;20287;-75
2020/12/30 12:19:16;;;;;;;23.40;13.88;;;5.90;99.90;;;;;;3623545;39;20248;-75
2020/12/30 12:21:44;;;;;;;27.77;14.48;;;5.90;99.90;;;;;;3630400;31;20272;-77
2020/12/30 12:24:17;;;;;;;34.70;14.43;;;6.00;99.90;;;;;;3621650;39;20244;-77
2020/12/30 12:26:44;;;;;;;26.45;14.88;;;6.00;99.90;;;;;;3626518;39;20765;-76
2020/12/30 12:32:32;;;;;;;30.58;14.93;;;6.00;99.90;;;;;;3629014;32;20311;-75
2020/12/30 12:34:59;;;;;;;26.98;14.18;;;6.10;99.90;;;;;;3627710;39;20240;-75
2020/12/30 12:37:28;;;;;;;28.10;15.10;;;6.10;99.90;;;;;;3624971;39;20252;-75
2020/12/30 12:39:57;;;;;;;24.15;13.85;;;6.00;99.90;;;;;;3623616;39;20252;-75
2020/12/30 12:42:24;;;;;;;29.33;15.13;;;6.10;99.90;;;;;;3627804;39;20244;-75
2020/12/30 12:44:52;;;;;;;28.48;15.57;;;6.10;99.90;;;;;;3627804;39;20260;-75
2020/12/30 12:47:25;;;;;;;24.42;12.20;;;6.10;99.90;;;;;;3625674;39;20256;-75
2020/12/30 12:49:52;;;;;;;27.73;15.13;;;6.00;99.90;;;;;;3636580;39;20327;-75
2020/12/30 12:52:20;;;;;;;25.10;13.77;;;5.90;99.90;;;;;;3626308;39;20287;-74
2020/12/30 12:54:47;;;;;;;28.58;15.68;;;5.90;99.90;;;;;;3625111;39;20349;-75
2020/12/30 12:57:15;;;;;;;25.27;13.52;;;5.90;99.90;;;;;;3626120;39;20243;-75
2020/12/30 12:59:48;;;;;;;37.13;14.00;;;5.90;99.90;;;;;;3627400;39;20578;-75
2020/12/30 13:02:20;;;;;;;33.00;15.15;;;6.00;99.90;;;;;;3625840;39;20338;-75